createdAt,value
2019-01-11T00:00:55.161Z,11.40
2019-01-11T00:03:24.736Z,11.30
2019-01-11T00:05:54.251Z,11.40
2019-01-11T00:08:23.846Z,11.40
2019-01-11T00:10:53.470Z,11.30
2019-01-11T00:13:22.928Z,11.40
2019-01-11T00:15:52.572Z,11.30
2019-01-11T00:18:22.085Z,11.30
2019-01-11T00:20:51.671Z,11.30
2019-01-11T00:23:21.152Z,11.30
2019-01-11T00:25:50.716Z,11.40
2019-01-11T00:28:20.330Z,11.30
2019-01-11T00:30:50.026Z,11.30
2019-01-11T00:33:19.629Z,11.30
2019-01-11T00:35:49.448Z,11.30
2019-01-11T00:38:18.997Z,11.20
2019-01-11T00:40:48.606Z,11.30
2019-01-11T00:43:18.154Z,11.30
2019-01-11T00:45:47.675Z,11.30
2019-01-11T00:48:17.279Z,11.30
2019-01-11T00:50:46.885Z,11.30
2019-01-11T00:53:16.487Z,11.20
2019-01-11T00:55:46.522Z,11.30
2019-01-11T00:58:16.026Z,11.30
2019-01-11T01:00:45.505Z,11.30
2019-01-11T01:03:15.137Z,11.30
2019-01-11T01:05:44.769Z,11.30
2019-01-11T01:08:14.349Z,11.30
2019-01-11T01:10:44.058Z,11.30
2019-01-11T01:13:13.678Z,11.30
2019-01-11T01:15:43.409Z,11.20
2019-01-11T01:18:12.900Z,11.20
2019-01-11T01:20:42.502Z,11.20
2019-01-11T01:23:12.103Z,11.20
2019-01-11T01:25:41.777Z,11.30
2019-01-11T01:28:11.322Z,11.30
2019-01-11T01:30:40.907Z,11.30
2019-01-11T01:33:11.096Z,11.20
2019-01-11T01:35:40.817Z,11.30
2019-01-11T01:38:10.437Z,11.30
2019-01-11T01:40:39.974Z,11.30
2019-01-11T01:43:09.485Z,11.30
2019-01-11T01:45:38.945Z,11.20
2019-01-11T01:48:08.705Z,11.30
2019-01-11T01:50:38.410Z,11.30
2019-01-11T01:53:09.090Z,11.20
2019-01-11T01:55:38.780Z,11.20
2019-01-11T01:58:08.435Z,11.20
2019-01-11T02:00:37.950Z,11.30
2019-01-11T02:03:07.472Z,11.30
2019-01-11T02:05:37.169Z,11.20
2019-01-11T02:08:07.008Z,11.20
2019-01-11T02:10:36.596Z,11.20
2019-01-11T02:13:06.235Z,11.20
2019-01-11T02:15:35.838Z,11.30
2019-01-11T02:18:05.472Z,11.20
2019-01-11T02:20:35.044Z,11.20
2019-01-11T02:23:04.520Z,11.20
2019-01-11T02:25:34.157Z,11.20
2019-01-11T02:28:03.760Z,11.20
2019-01-11T02:30:33.264Z,11.20
2019-01-11T02:33:02.995Z,11.20
2019-01-11T02:35:32.710Z,11.20
2019-01-11T02:38:02.298Z,11.20
2019-01-11T02:40:32.237Z,11.20
2019-01-11T02:43:01.831Z,11.10
2019-01-11T02:45:31.436Z,11.20
2019-01-11T02:48:01.153Z,11.10
2019-01-11T02:50:30.654Z,11.20
2019-01-11T02:53:00.369Z,11.20
2019-01-11T02:55:29.838Z,11.20
2019-01-11T02:57:59.473Z,11.10
2019-01-11T03:00:31.836Z,11.10
2019-01-11T03:03:01.556Z,11.20
2019-01-11T03:05:31.018Z,11.20
2019-01-11T03:08:00.787Z,11.20
2019-01-11T03:10:30.459Z,11.20
2019-01-11T03:13:36.794Z,11.20
2019-01-11T03:16:06.387Z,11.10
2019-01-11T03:18:35.978Z,11.10
2019-01-11T03:21:06.093Z,11.10
2019-01-11T03:23:38.454Z,11.20
2019-01-11T03:26:08.068Z,11.10
2019-01-11T03:28:40.066Z,11.10
2019-01-11T03:31:19.668Z,11.10
2019-01-11T03:33:49.089Z,11.10
2019-01-11T03:36:18.488Z,11.10
2019-01-11T03:38:47.989Z,11.10
2019-01-11T03:41:17.568Z,11.10
2019-01-11T03:43:47.520Z,11.10
2019-01-11T03:46:17.136Z,11.10
2019-01-11T03:48:46.617Z,11.10
2019-01-11T03:51:16.247Z,11.20
2019-01-11T03:53:45.999Z,11.10
2019-01-11T03:56:15.649Z,11.10
2019-01-11T03:58:45.296Z,11.10
2019-01-11T04:01:14.764Z,11.20
2019-01-11T04:03:44.495Z,11.10
2019-01-11T04:06:14.051Z,11.20
2019-01-11T04:08:43.594Z,11.10
2019-01-11T04:11:13.202Z,11.10
2019-01-11T04:13:42.935Z,11.10
2019-01-11T04:16:12.525Z,11.10
2019-01-11T04:18:58.010Z,11.10
2019-01-11T04:21:27.746Z,11.10
2019-01-11T04:23:57.608Z,11.10
2019-01-11T04:26:27.349Z,11.10
2019-01-11T04:28:57.065Z,11.10
2019-01-11T04:31:26.784Z,11.10
2019-01-11T04:33:56.377Z,11.10
2019-01-11T04:36:26.046Z,11.10
2019-01-11T04:38:55.697Z,11.10
2019-01-11T04:41:25.426Z,11.10
2019-01-11T04:43:55.239Z,11.20
2019-01-11T04:46:24.827Z,11.10
2019-01-11T04:48:54.562Z,11.10
2019-01-11T04:51:24.247Z,11.10
2019-01-11T04:53:54.100Z,11.10
2019-01-11T04:56:23.786Z,11.10
2019-01-11T04:58:53.574Z,11.20
2019-01-11T05:01:23.206Z,11.10
2019-01-11T05:03:53.018Z,11.10
2019-01-11T05:06:22.643Z,11.10
2019-01-11T05:08:52.339Z,11.10
2019-01-11T05:11:21.937Z,11.10
2019-01-11T05:13:55.014Z,11.10
2019-01-11T05:16:24.636Z,11.10
2019-01-11T05:18:54.358Z,11.10
2019-01-11T05:21:24.104Z,11.10
2019-01-11T05:23:53.671Z,11.10
2019-01-11T05:26:23.372Z,11.10
2019-01-11T05:28:53.055Z,11.10
2019-01-11T05:31:22.943Z,11.10
2019-01-11T05:33:52.317Z,11.00
2019-01-11T05:36:22.449Z,11.00
2019-01-11T05:38:51.917Z,11.10
2019-01-11T05:41:21.421Z,11.10
2019-01-11T05:43:51.453Z,11.10
2019-01-11T05:46:21.167Z,11.00
2019-01-11T05:48:51.098Z,11.00
2019-01-11T05:51:21.751Z,11.00
2019-01-11T05:53:51.390Z,11.10
2019-01-11T05:56:21.631Z,11.00
2019-01-11T05:58:54.557Z,11.10
2019-01-11T06:01:24.248Z,11.10
2019-01-11T06:03:54.185Z,11.00
2019-01-11T06:08:43.562Z,11.00
2019-01-11T06:11:13.227Z,11.00
2019-01-11T06:13:42.862Z,11.10
2019-01-11T06:16:12.892Z,11.10
2019-01-11T06:18:42.398Z,11.10
2019-01-11T06:21:12.103Z,11.00
2019-01-11T06:23:41.631Z,11.00
2019-01-11T06:26:11.522Z,11.00
2019-01-11T06:28:41.232Z,11.00
2019-01-11T06:31:10.924Z,11.00
2019-01-11T06:33:40.544Z,11.10
2019-01-11T06:36:10.314Z,11.00
2019-01-11T06:38:39.995Z,11.10
2019-01-11T06:41:09.656Z,11.00
2019-01-11T06:43:40.179Z,11.00
2019-01-11T06:46:09.972Z,11.00
2019-01-11T06:48:41.262Z,11.00
2019-01-11T06:51:11.175Z,11.00
2019-01-11T06:53:40.633Z,11.10
2019-01-11T06:56:10.299Z,11.00
2019-01-11T06:58:39.924Z,11.00
2019-01-11T07:01:09.463Z,11.00
2019-01-11T07:03:39.238Z,11.00
2019-01-11T07:06:08.948Z,11.00
2019-01-11T07:08:38.968Z,10.90
2019-01-11T07:11:09.082Z,11.00
2019-01-11T07:13:38.801Z,11.00
2019-01-11T07:16:08.510Z,11.10
2019-01-11T07:18:38.730Z,11.10
2019-01-11T07:21:08.281Z,11.00
2019-01-11T07:23:37.874Z,11.00
2019-01-11T07:26:07.579Z,11.00
2019-01-11T07:28:37.574Z,11.00
2019-01-11T07:31:15.172Z,11.10
2019-01-11T07:33:44.775Z,11.10
2019-01-11T07:36:25.048Z,11.00
2019-01-11T07:38:54.770Z,11.00
2019-01-11T07:41:24.424Z,11.00
2019-01-11T07:43:54.076Z,11.00
2019-01-11T07:46:23.682Z,11.00
2019-01-11T07:48:53.407Z,11.00
2019-01-11T07:51:22.987Z,11.10
2019-01-11T07:53:52.816Z,11.00
2019-01-11T07:56:22.400Z,10.90
2019-01-11T07:58:52.175Z,11.00
2019-01-11T08:01:24.416Z,11.00
2019-01-11T08:03:54.033Z,11.00
2019-01-11T08:06:23.560Z,11.00
2019-01-11T08:08:53.826Z,11.00
2019-01-11T08:11:23.659Z,11.00
2019-01-11T08:13:53.070Z,11.00
2019-01-11T08:16:22.702Z,10.90
2019-01-11T08:18:52.389Z,11.00
2019-01-11T08:21:21.957Z,11.00
2019-01-11T08:23:51.571Z,11.00
2019-01-11T08:26:24.025Z,11.00
2019-01-11T08:28:53.681Z,11.00
2019-01-11T08:31:23.239Z,11.00
2019-01-11T08:33:53.781Z,10.90
2019-01-11T08:36:23.312Z,11.00
2019-01-11T08:38:52.842Z,11.00
2019-01-11T08:41:23.254Z,11.00
2019-01-11T08:43:52.880Z,11.00
2019-01-11T08:46:22.566Z,11.00
2019-01-11T08:48:52.442Z,11.00
2019-01-11T08:51:22.110Z,11.00
2019-01-11T08:53:51.684Z,11.00
2019-01-11T08:56:21.416Z,11.00
2019-01-11T08:58:51.026Z,11.00
2019-01-11T09:01:20.619Z,11.00
2019-01-11T09:03:50.126Z,11.00
2019-01-11T09:06:20.516Z,11.00
2019-01-11T09:08:50.158Z,11.00
2019-01-11T09:11:20.032Z,11.00
2019-01-11T09:13:49.719Z,10.90
2019-01-11T09:16:20.806Z,11.00
2019-01-11T09:19:02.141Z,11.00
2019-01-11T09:21:32.146Z,11.00
2019-01-11T09:24:01.842Z,11.00
2019-01-11T09:26:31.477Z,11.00
2019-01-11T09:29:02.051Z,11.00
2019-01-11T09:31:31.512Z,11.00
2019-01-11T09:34:01.106Z,11.00
2019-01-11T09:36:30.837Z,11.10
2019-01-11T09:39:00.665Z,11.10
2019-01-11T09:41:30.227Z,11.00
2019-01-11T09:43:59.754Z,11.00
2019-01-11T09:46:29.267Z,11.00
2019-01-11T09:48:59.223Z,11.00
2019-01-11T09:51:28.768Z,11.00
2019-01-11T09:53:58.267Z,11.00
2019-01-11T09:56:27.759Z,10.90
2019-01-11T09:58:57.545Z,11.00
2019-01-11T10:01:27.292Z,11.10
2019-01-11T10:03:56.877Z,11.00
2019-01-11T10:06:26.507Z,11.00
2019-01-11T10:08:56.359Z,11.10
2019-01-11T10:11:26.027Z,11.10
2019-01-11T10:13:55.656Z,11.00
2019-01-11T10:16:25.253Z,11.00
2019-01-11T10:18:54.933Z,11.00
2019-01-11T10:21:24.472Z,11.00
2019-01-11T10:23:54.190Z,11.00
2019-01-11T10:26:23.775Z,11.00
2019-01-11T10:28:53.419Z,11.00
2019-01-11T10:31:22.903Z,11.00
2019-01-11T10:33:52.508Z,11.10
2019-01-11T10:36:22.220Z,11.00
2019-01-11T10:38:51.851Z,10.90
2019-01-11T10:41:22.389Z,10.90
2019-01-11T10:43:51.970Z,11.00
2019-01-11T10:46:35.292Z,11.00
2019-01-11T10:49:04.974Z,11.00
2019-01-11T10:51:34.831Z,11.00
2019-01-11T10:54:04.436Z,11.00
2019-01-11T10:56:34.140Z,11.00
2019-01-11T10:59:03.973Z,11.00
2019-01-11T11:01:33.461Z,11.00
2019-01-11T11:04:03.249Z,11.00
2019-01-11T11:06:32.883Z,11.00
2019-01-11T11:09:02.601Z,11.00
2019-01-11T11:11:32.413Z,11.00
2019-01-11T11:14:01.938Z,11.00
2019-01-11T11:16:32.940Z,11.00
2019-01-11T11:19:03.111Z,10.90
2019-01-11T11:21:34.857Z,11.00
2019-01-11T11:24:04.136Z,11.00
2019-01-11T11:26:33.777Z,11.00
2019-01-11T11:29:03.588Z,11.10
2019-01-11T11:31:33.266Z,11.00
2019-01-11T11:34:02.865Z,11.00
2019-01-11T11:36:32.510Z,11.00
2019-01-11T11:39:02.098Z,11.00
2019-01-11T11:41:31.627Z,11.00
2019-01-11T11:44:01.206Z,11.10
2019-01-11T11:46:30.814Z,11.00
2019-01-11T11:49:00.462Z,11.00
2019-01-11T11:51:29.934Z,11.00
2019-01-11T11:53:59.464Z,11.10
2019-01-11T11:56:29.043Z,11.00
2019-01-11T11:58:58.756Z,11.00
2019-01-11T12:01:28.550Z,11.00
2019-01-11T12:03:58.187Z,11.00
2019-01-11T12:06:27.993Z,11.00
2019-01-11T12:08:57.562Z,11.00
2019-01-11T12:11:27.421Z,11.00
2019-01-11T12:13:57.019Z,11.00
2019-01-11T12:16:26.610Z,11.00
2019-01-11T12:18:56.343Z,11.00
2019-01-11T12:21:25.924Z,11.00
2019-01-11T12:23:55.467Z,10.90
2019-01-11T12:26:25.385Z,11.00
2019-01-11T12:28:54.954Z,10.90
2019-01-11T12:31:24.904Z,10.90
2019-01-11T12:33:54.463Z,11.00
2019-01-11T12:36:24.104Z,11.00
2019-01-11T12:38:53.823Z,11.00
2019-01-11T12:41:23.666Z,11.00
2019-01-11T12:43:53.254Z,11.00
2019-01-11T12:46:22.982Z,11.00
2019-01-11T12:48:52.551Z,11.00
2019-01-11T12:51:22.221Z,11.00
2019-01-11T12:53:51.785Z,11.00
2019-01-11T12:56:21.508Z,11.00
2019-01-11T12:58:51.945Z,11.00
2019-01-11T13:01:21.832Z,11.00
2019-01-11T13:03:51.440Z,11.00
2019-01-11T13:06:21.254Z,11.00
2019-01-11T13:08:52.763Z,11.00
2019-01-11T13:11:22.636Z,11.00
2019-01-11T13:13:52.230Z,11.00
2019-01-11T13:16:21.828Z,11.00
2019-01-11T13:18:51.455Z,11.00
2019-01-11T13:21:21.281Z,11.00
2019-01-11T13:23:50.997Z,11.00
2019-01-11T13:26:20.575Z,10.90
2019-01-11T13:28:50.111Z,11.00
2019-01-11T13:31:19.926Z,11.00
2019-01-11T13:34:06.784Z,11.00
2019-01-11T13:36:42.024Z,11.10
2019-01-11T13:39:13.908Z,11.00
2019-01-11T13:41:43.582Z,11.00
2019-01-11T13:44:13.253Z,11.00
2019-01-11T13:46:43.197Z,11.00
2019-01-11T13:49:12.887Z,11.00
2019-01-11T13:51:42.392Z,10.90
2019-01-11T13:54:11.930Z,11.00
2019-01-11T13:56:41.954Z,11.00
2019-01-11T13:59:11.916Z,11.00
2019-01-11T14:01:41.682Z,11.00
2019-01-11T14:04:11.350Z,11.10
2019-01-11T14:06:41.653Z,11.00
2019-01-11T14:09:11.145Z,11.00
2019-01-11T14:11:40.903Z,11.00
2019-01-11T14:14:10.693Z,11.00
2019-01-11T14:16:40.513Z,11.00
2019-01-11T14:19:10.125Z,11.00
2019-01-11T14:21:40.122Z,10.90
2019-01-11T14:24:10.467Z,11.00
2019-01-11T14:26:40.147Z,11.00
2019-01-11T14:29:09.847Z,11.00
2019-01-11T14:31:39.470Z,10.90
2019-01-11T14:34:09.682Z,10.90
2019-01-11T14:36:39.463Z,10.90
2019-01-11T14:39:09.743Z,10.90
2019-01-11T14:41:39.830Z,10.90
2019-01-11T14:44:09.576Z,10.90
2019-01-11T14:46:39.041Z,11.00
2019-01-11T14:49:08.643Z,11.00
2019-01-11T14:51:38.244Z,10.90
2019-01-11T14:54:07.968Z,11.00
2019-01-11T14:56:37.617Z,11.00
2019-01-11T14:59:07.229Z,10.90
2019-01-11T15:01:36.733Z,10.90
2019-01-11T15:04:06.640Z,10.90
2019-01-11T15:06:36.588Z,10.90
2019-01-11T15:09:08.625Z,10.90
2019-01-11T15:11:38.601Z,10.90
2019-01-11T15:14:08.952Z,10.90
2019-01-11T15:16:39.117Z,10.90
2019-01-11T15:19:13.985Z,10.90
2019-01-11T15:21:40.857Z,10.90
2019-01-11T15:24:10.779Z,11.00
2019-01-11T15:26:40.603Z,10.90
2019-01-11T15:29:18.063Z,11.00
2019-01-11T15:31:48.353Z,10.90
2019-01-11T15:34:18.110Z,10.90
2019-01-11T15:36:47.827Z,10.90
2019-01-11T15:39:17.567Z,10.90
2019-01-11T15:41:47.392Z,10.90
2019-01-11T15:44:17.991Z,10.90
2019-01-11T15:46:47.857Z,10.90
2019-01-11T15:49:17.714Z,10.90
2019-01-11T15:51:47.499Z,10.90
2019-01-11T15:54:17.830Z,10.90
2019-01-11T15:57:09.426Z,11.00
2019-01-11T16:00:03.178Z,10.90
2019-01-11T16:02:33.509Z,10.90
2019-01-11T16:05:03.319Z,10.90
2019-01-11T16:07:33.744Z,11.00
2019-01-11T16:10:09.292Z,10.90
2019-01-11T16:13:29.577Z,10.90
2019-01-11T16:16:23.750Z,10.80
2019-01-11T16:18:54.751Z,10.80
2019-01-11T16:21:24.499Z,10.80
2019-01-11T16:23:54.127Z,10.80
2019-01-11T16:26:23.769Z,10.90
2019-01-11T16:28:55.245Z,10.80
2019-01-11T16:31:24.774Z,10.90
2019-01-11T16:33:54.587Z,10.80
2019-01-11T16:36:24.267Z,10.90
2019-01-11T16:38:54.221Z,10.80
2019-01-11T16:41:24.339Z,10.80
2019-01-11T16:43:53.980Z,10.90
2019-01-11T16:46:23.759Z,10.80
2019-01-11T16:48:53.376Z,10.90
2019-01-11T16:51:24.006Z,10.90
2019-01-11T16:53:54.741Z,10.80
2019-01-11T16:56:24.470Z,10.80
2019-01-11T16:58:53.998Z,10.80
2019-01-11T17:01:23.800Z,11.00
2019-01-11T17:03:53.585Z,10.90
2019-01-11T17:06:25.513Z,11.00
2019-01-11T17:08:55.183Z,10.90
2019-01-11T17:11:26.330Z,10.80
2019-01-11T17:13:57.454Z,10.90
2019-01-11T17:16:28.361Z,10.80
2019-01-11T17:19:02.148Z,10.90
2019-01-11T17:21:31.692Z,10.80
2019-01-11T17:24:01.513Z,10.80
2019-01-11T17:26:33.406Z,10.80
2019-01-11T17:29:03.257Z,10.80
2019-01-11T17:31:34.198Z,10.80
2019-01-11T17:34:10.064Z,10.80
2019-01-11T17:36:39.711Z,10.80
2019-01-11T17:39:10.461Z,10.80
2019-01-11T17:41:40.219Z,10.80
2019-01-11T17:44:10.047Z,10.80
2019-01-11T17:46:39.796Z,10.90
2019-01-11T17:49:09.656Z,10.80
2019-01-11T17:51:41.868Z,10.80
2019-01-11T17:54:11.724Z,10.80
2019-01-11T17:56:41.741Z,10.90
2019-01-11T17:59:11.386Z,10.80
2019-01-11T18:01:41.338Z,10.90
2019-01-11T18:04:10.911Z,10.80
2019-01-11T18:06:40.744Z,10.70
2019-01-11T18:09:10.528Z,10.80
2019-01-11T18:11:43.652Z,10.80
2019-01-11T18:14:13.637Z,10.80
2019-01-11T18:16:43.141Z,10.80
2019-01-11T18:19:13.888Z,10.80
2019-01-11T18:21:43.637Z,10.80
2019-01-11T18:24:13.410Z,10.80
2019-01-11T18:26:43.031Z,10.70
2019-01-11T18:29:12.723Z,10.70
2019-01-11T18:31:42.563Z,10.80
2019-01-11T18:34:12.553Z,10.70
2019-01-11T18:36:42.164Z,10.80
2019-01-11T18:39:11.822Z,10.80
2019-01-11T18:41:41.502Z,10.70
2019-01-11T18:44:11.054Z,10.70
2019-01-11T18:46:40.820Z,10.80
2019-01-11T18:49:12.144Z,10.70
2019-01-11T18:51:41.721Z,10.70
2019-01-11T18:54:11.478Z,10.70
2019-01-11T18:56:41.398Z,10.70
2019-01-11T18:59:11.133Z,10.80
2019-01-11T19:01:41.201Z,10.80
2019-01-11T19:04:11.235Z,10.80
2019-01-11T19:06:41.146Z,10.80
2019-01-11T19:09:11.397Z,10.70
2019-01-11T19:11:41.454Z,10.70
2019-01-11T19:14:11.501Z,10.80
2019-01-11T19:16:41.118Z,10.80
2019-01-11T19:19:10.857Z,10.80
2019-01-11T19:21:40.725Z,10.70
2019-01-11T19:24:10.243Z,10.70
2019-01-11T19:26:40.162Z,10.80
2019-01-11T19:29:11.031Z,10.70
2019-01-11T19:31:40.714Z,10.80
2019-01-11T19:34:10.390Z,10.80
2019-01-11T19:36:41.230Z,10.80
2019-01-11T19:39:10.998Z,10.80
2019-01-11T19:41:40.539Z,10.80
2019-01-11T19:44:10.254Z,10.70
2019-01-11T19:46:40.657Z,10.80
2019-01-11T19:49:10.302Z,10.70
2019-01-11T19:51:41.008Z,10.60
2019-01-11T19:54:10.803Z,10.70
2019-01-11T19:56:40.436Z,10.80
2019-01-11T19:59:10.000Z,10.70
2019-01-11T20:01:39.685Z,10.70
2019-01-11T20:04:09.358Z,10.70
2019-01-11T20:06:39.104Z,10.70
2019-01-11T20:09:09.476Z,10.80
2019-01-11T20:11:39.169Z,10.80
2019-01-11T20:14:09.092Z,10.80
2019-01-11T20:16:39.167Z,10.80
2019-01-11T20:19:09.524Z,10.70
2019-01-11T20:21:39.587Z,10.80
2019-01-11T20:24:09.246Z,10.70
2019-01-11T20:26:39.977Z,10.80
2019-01-11T20:29:11.893Z,10.70
2019-01-11T20:31:41.779Z,10.70
2019-01-11T20:34:11.718Z,10.80
2019-01-11T20:36:46.609Z,10.80
2019-01-11T20:39:16.522Z,10.70
2019-01-11T20:41:46.458Z,10.70
2019-01-11T20:44:16.208Z,10.70
2019-01-11T20:46:46.255Z,10.80
2019-01-11T20:49:16.100Z,10.80
2019-01-11T20:51:45.683Z,10.70
2019-01-11T20:54:15.735Z,10.80
2019-01-11T20:56:45.402Z,10.90
2019-01-11T20:59:16.883Z,10.70
2019-01-11T21:01:46.595Z,10.70
2019-01-11T21:04:16.646Z,10.70
2019-01-11T21:06:49.766Z,10.70
2019-01-11T21:09:21.076Z,10.80
2019-01-11T21:11:53.337Z,10.80
2019-01-11T21:14:24.299Z,10.70
2019-01-11T21:16:54.171Z,10.60
2019-01-11T21:19:25.270Z,10.70
2019-01-11T21:21:56.936Z,10.70
2019-01-11T21:24:26.602Z,10.80
2019-01-11T21:26:56.306Z,10.70
2019-01-11T21:29:25.989Z,10.70
2019-01-11T21:31:58.212Z,10.70
2019-01-11T21:34:29.222Z,10.70
2019-01-11T21:36:59.579Z,10.70
2019-01-11T21:39:36.762Z,10.70
2019-01-11T21:42:06.400Z,10.70
2019-01-11T21:44:36.319Z,10.70
2019-01-11T21:47:06.081Z,10.70
2019-01-11T21:49:35.674Z,10.70
2019-01-11T21:52:05.277Z,10.70
2019-01-11T21:54:36.253Z,10.70
2019-01-11T21:57:06.141Z,10.60
2019-01-11T21:59:35.921Z,10.70
2019-01-11T22:02:07.569Z,10.60
2019-01-11T22:04:37.742Z,10.60
2019-01-11T22:07:08.303Z,10.80
2019-01-11T22:09:39.788Z,10.70
2019-01-11T22:12:10.430Z,10.70
2019-01-11T22:14:48.281Z,10.70
2019-01-11T22:17:19.489Z,10.60
2019-01-11T22:19:49.431Z,10.70
2019-01-11T22:22:23.508Z,10.70
2019-01-11T22:24:53.040Z,10.70
2019-01-11T22:27:22.940Z,10.70
2019-01-11T22:29:52.767Z,10.60
2019-01-11T22:32:23.536Z,10.80
2019-01-11T22:34:53.383Z,10.60
2019-01-11T22:37:23.852Z,10.70
2019-01-11T22:39:55.396Z,10.70
2019-01-11T22:42:25.420Z,10.60
2019-01-11T22:44:56.102Z,10.70
2019-01-11T22:47:26.540Z,10.70
2019-01-11T22:49:56.779Z,10.70
2019-01-11T22:52:28.424Z,10.70
2019-01-11T22:54:58.687Z,10.70
2019-01-11T22:57:30.488Z,10.60
2019-01-11T23:00:00.474Z,10.60
2019-01-11T23:02:44.998Z,10.70
2019-01-11T23:05:15.219Z,10.60
2019-01-11T23:07:52.255Z,10.60
2019-01-11T23:10:50.003Z,10.60
2019-01-11T23:13:19.687Z,10.60
2019-01-11T23:15:58.599Z,10.60
2019-01-11T23:18:29.695Z,10.60
2019-01-11T23:21:02.457Z,10.50
2019-01-11T23:23:31.979Z,10.60
2019-01-11T23:26:01.550Z,10.60
2019-01-11T23:28:31.075Z,10.70
2019-01-11T23:31:00.727Z,10.70
2019-01-11T23:33:30.376Z,10.60
2019-01-11T23:35:59.879Z,10.60
2019-01-11T23:38:29.586Z,10.70
2019-01-11T23:40:59.394Z,10.60
2019-01-11T23:43:29.124Z,10.50
2019-01-11T23:45:58.728Z,10.60
2019-01-11T23:48:28.333Z,10.60
2019-01-11T23:50:57.927Z,10.60
2019-01-11T23:53:27.651Z,10.60
2019-01-11T23:55:57.259Z,10.60
2019-01-11T23:58:26.889Z,10.70
